sensor_id;sensor_type;location;lat;lon;timestamp;temperature;humidity
13610;DHT22;6876;50.788;4.940;2023-07-20T00:02:12;16.60;1.00
13610;DHT22;6876;50.788;4.940;2023-07-20T00:05:01;16.60;1.00
13610;DHT22;6876;50.788;4.940;2023-07-20T00:07:48;16.60;1.00
13610;DHT22;6876;50.788;4.940;2023-07-20T00:10:37;16.60;1.00
13610;DHT22;6876;50.788;4.940;2023-07-20T00:13:25;16.60;1.00
13610;DHT22;6876;50.788;4.940;2023-07-20T00:16:12;16.60;1.00
13610;DHT22;6876;50.788;4.940;2023-07-20T00:18:59;16.60;1.00
13610;DHT22;6876;50.788;4.940;2023-07-20T00:21:48;16.60;1.00
13610;DHT22;6876;50.788;4.940;2023-07-20T00:24:35;16.60;1.00
13610;DHT22;6876;50.788;4.940;2023-07-20T00:27:22;16.60;1.00
13610;DHT22;6876;50.788;4.940;2023-07-20T00:30:10;16.60;1.00
13610;DHT22;6876;50.788;4.940;2023-07-20T00:32:58;16.60;1.00
13610;DHT22;6876;50.788;4.940;2023-07-20T00:35:45;16.60;1.00
13610;DHT22;6876;50.788;4.940;2023-07-20T00:38:34;16.70;1.00
13610;DHT22;6876;50.788;4.940;2023-07-20T00:41:21;16.70;1.00
13610;DHT22;6876;50.788;4.940;2023-07-20T00:44:08;16.70;1.00
13610;DHT22;6876;50.788;4.940;2023-07-20T00:46:55;16.60;1.00
13610;DHT22;6876;50.788;4.940;2023-07-20T00:49:43;16.70;1.00
13610;DHT22;6876;50.788;4.940;2023-07-20T00:52:30;16.70;1.00
13610;DHT22;6876;50.788;4.940;2023-07-20T00:55:19;16.70;1.00
13610;DHT22;6876;50.788;4.940;2023-07-20T00:58:06;16.80;1.00
13610;DHT22;6876;50.788;4.940;2023-07-20T01:00:53;16.80;1.00
13610;DHT22;6876;50.788;4.940;2023-07-20T01:03:41;16.80;1.00
13610;DHT22;6876;50.788;4.940;2023-07-20T01:06:35;16.70;1.00
13610;DHT22;6876;50.788;4.940;2023-07-20T01:09:28;16.70;1.00
13610;DHT22;6876;50.788;4.940;2023-07-20T01:12:25;16.70;1.00
13610;DHT22;6876;50.788;4.940;2023-07-20T01:15:13;16.70;1.00
13610;DHT22;6876;50.788;4.940;2023-07-20T01:18:01;16.60;1.00
13610;DHT22;6876;50.788;4.940;2023-07-20T01:20:50;16.60;1.00
13610;DHT22;6876;50.788;4.940;2023-07-20T01:24:04;16.70;1.00
13610;DHT22;6876;50.788;4.940;2023-07-20T01:27:06;16.70;1.00
13610;DHT22;6876;50.788;4.940;2023-07-20T01:30:16;16.60;1.00
13610;DHT22;6876;50.788;4.940;2023-07-20T01:33:09;16.70;1.00
13610;DHT22;6876;50.788;4.940;2023-07-20T01:35:59;16.60;1.00
13610;DHT22;6876;50.788;4.940;2023-07-20T01:38:47;16.60;1.00
13610;DHT22;6876;50.788;4.940;2023-07-20T01:41:35;16.70;1.00
13610;DHT22;6876;50.788;4.940;2023-07-20T01:44:23;16.70;1.00
13610;DHT22;6876;50.788;4.940;2023-07-20T01:47:10;16.70;1.00
13610;DHT22;6876;50.788;4.940;2023-07-20T01:49:59;16.70;1.00
13610;DHT22;6876;50.788;4.940;2023-07-20T01:52:46;16.70;1.00
13610;DHT22;6876;50.788;4.940;2023-07-20T01:55:33;16.70;1.00
13610;DHT22;6876;50.788;4.940;2023-07-20T01:58:21;16.70;1.00
13610;DHT22;6876;50.788;4.940;2023-07-20T02:01:08;16.70;1.00
13610;DHT22;6876;50.788;4.940;2023-07-20T02:03:55;16.60;1.00
13610;DHT22;6876;50.788;4.940;2023-07-20T02:06:44;16.60;1.00
13610;DHT22;6876;50.788;4.940;2023-07-20T02:09:31;16.60;1.00
13610;DHT22;6876;50.788;4.940;2023-07-20T02:12:18;16.60;1.00
13610;DHT22;6876;50.788;4.940;2023-07-20T02:15:06;16.50;1.00
13610;DHT22;6876;50.788;4.940;2023-07-20T02:17:54;16.50;1.00
13610;DHT22;6876;50.788;4.940;2023-07-20T02:20:41;16.40;1.00
13610;DHT22;6876;50.788;4.940;2023-07-20T02:23:30;16.40;1.00
13610;DHT22;6876;50.788;4.940;2023-07-20T02:26:17;16.30;1.00
13610;DHT22;6876;50.788;4.940;2023-07-20T02:29:05;16.30;1.00
13610;DHT22;6876;50.788;4.940;2023-07-20T02:31:53;16.20;1.00
13610;DHT22;6876;50.788;4.940;2023-07-20T02:34:41;16.10;1.00
13610;DHT22;6876;50.788;4.940;2023-07-20T02:37:28;16.00;1.00
13610;DHT22;6876;50.788;4.940;2023-07-20T02:40:17;16.00;1.00
13610;DHT22;6876;50.788;4.940;2023-07-20T02:43:04;16.00;1.00
13610;DHT22;6876;50.788;4.940;2023-07-20T02:45:51;16.10;1.00
13610;DHT22;6876;50.788;4.940;2023-07-20T02:48:38;16.10;1.00
13610;DHT22;6876;50.788;4.940;2023-07-20T02:51:25;16.10;1.00
13610;DHT22;6876;50.788;4.940;2023-07-20T02:54:13;16.00;1.00
13610;DHT22;6876;50.788;4.940;2023-07-20T02:57:01;16.10;1.00
13610;DHT22;6876;50.788;4.940;2023-07-20T02:59:48;16.10;1.00
13610;DHT22;6876;50.788;4.940;2023-07-20T03:02:36;16.10;1.00
13610;DHT22;6876;50.788;4.940;2023-07-20T03:05:23;16.10;1.00
13610;DHT22;6876;50.788;4.940;2023-07-20T03:08:11;16.10;1.00
13610;DHT22;6876;50.788;4.940;2023-07-20T03:10:59;16.10;1.00
13610;DHT22;6876;50.788;4.940;2023-07-20T03:13:47;16.20;1.00
13610;DHT22;6876;50.788;4.940;2023-07-20T03:16:35;16.30;1.00
13610;DHT22;6876;50.788;4.940;2023-07-20T03:19:22;16.30;1.00
13610;DHT22;6876;50.788;4.940;2023-07-20T03:22:09;16.40;1.00
13610;DHT22;6876;50.788;4.940;2023-07-20T03:24:56;16.40;1.00
13610;DHT22;6876;50.788;4.940;2023-07-20T03:27:44;16.40;1.00
13610;DHT22;6876;50.788;4.940;2023-07-20T03:30:32;16.40;1.00
13610;DHT22;6876;50.788;4.940;2023-07-20T03:33:19;16.20;1.00
13610;DHT22;6876;50.788;4.940;2023-07-20T03:36:07;16.20;1.00
13610;DHT22;6876;50.788;4.940;2023-07-20T03:38:54;16.20;1.00
13610;DHT22;6876;50.788;4.940;2023-07-20T03:41:41;16.10;1.00
13610;DHT22;6876;50.788;4.940;2023-07-20T03:44:29;16.10;1.00
13610;DHT22;6876;50.788;4.940;2023-07-20T03:47:17;15.90;1.00
13610;DHT22;6876;50.788;4.940;2023-07-20T03:50:06;16.00;10.80
13610;DHT22;6876;50.788;4.940;2023-07-20T03:52:55;16.00;21.70
13610;DHT22;6876;50.788;4.940;2023-07-20T03:55:44;16.10;21.70
13610;DHT22;6876;50.788;4.940;2023-07-20T03:58:32;16.10;21.10
13610;DHT22;6876;50.788;4.940;2023-07-20T04:01:19;16.20;20.40
13610;DHT22;6876;50.788;4.940;2023-07-20T04:04:08;16.20;18.40
13610;DHT22;6876;50.788;4.940;2023-07-20T04:06:55;16.20;1.00
13610;DHT22;6876;50.788;4.940;2023-07-20T04:09:42;16.30;1.00
13610;DHT22;6876;50.788;4.940;2023-07-20T04:12:29;16.40;1.00
13610;DHT22;6876;50.788;4.940;2023-07-20T04:15:17;16.40;1.00
13610;DHT22;6876;50.788;4.940;2023-07-20T04:18:04;16.50;1.00
13610;DHT22;6876;50.788;4.940;2023-07-20T04:20:53;16.50;1.00
13610;DHT22;6876;50.788;4.940;2023-07-20T04:23:40;16.50;1.00
13610;DHT22;6876;50.788;4.940;2023-07-20T04:26:27;16.50;1.00
13610;DHT22;6876;50.788;4.940;2023-07-20T04:29:15;16.40;13.50
13610;DHT22;6876;50.788;4.940;2023-07-20T04:32:02;16.40;21.10
13610;DHT22;6876;50.788;4.940;2023-07-20T04:34:49;16.40;27.40
13610;DHT22;6876;50.788;4.940;2023-07-20T04:37:38;16.50;16.10
13610;DHT22;6876;50.788;4.940;2023-07-20T04:40:32;16.50;21.10
13610;DHT22;6876;50.788;4.940;2023-07-20T04:43:19;16.50;29.10
13610;DHT22;6876;50.788;4.940;2023-07-20T04:46:06;16.50;20.80
13610;DHT22;6876;50.788;4.940;2023-07-20T04:48:53;16.70;22.00
13610;DHT22;6876;50.788;4.940;2023-07-20T04:51:41;16.80;1.00
13610;DHT22;6876;50.788;4.940;2023-07-20T04:54:29;16.80;1.00
13610;DHT22;6876;50.788;4.940;2023-07-20T04:57:16;16.80;1.00
13610;DHT22;6876;50.788;4.940;2023-07-20T05:00:05;16.90;1.00
13610;DHT22;6876;50.788;4.940;2023-07-20T05:02:52;16.90;1.00
13610;DHT22;6876;50.788;4.940;2023-07-20T05:05:39;16.90;1.00
13610;DHT22;6876;50.788;4.940;2023-07-20T05:08:27;17.00;1.00
13610;DHT22;6876;50.788;4.940;2023-07-20T05:11:15;17.00;1.00
13610;DHT22;6876;50.788;4.940;2023-07-20T05:14:03;17.00;1.00
13610;DHT22;6876;50.788;4.940;2023-07-20T05:16:50;17.10;1.00
13610;DHT22;6876;50.788;4.940;2023-07-20T05:19:37;17.10;1.00
13610;DHT22;6876;50.788;4.940;2023-07-20T05:22:24;17.10;1.00
13610;DHT22;6876;50.788;4.940;2023-07-20T05:25:12;17.10;1.00
13610;DHT22;6876;50.788;4.940;2023-07-20T05:28:00;17.10;1.00
13610;DHT22;6876;50.788;4.940;2023-07-20T05:30:47;17.10;1.00
13610;DHT22;6876;50.788;4.940;2023-07-20T05:33:35;17.20;1.00
13610;DHT22;6876;50.788;4.940;2023-07-20T05:36:22;17.30;1.00
13610;DHT22;6876;50.788;4.940;2023-07-20T05:39:09;17.40;1.00
13610;DHT22;6876;50.788;4.940;2023-07-20T05:41:56;17.50;1.00
13610;DHT22;6876;50.788;4.940;2023-07-20T05:44:45;17.60;1.00
13610;DHT22;6876;50.788;4.940;2023-07-20T05:47:33;17.70;1.00
13610;DHT22;6876;50.788;4.940;2023-07-20T05:50:20;17.80;1.00
13610;DHT22;6876;50.788;4.940;2023-07-20T05:53:07;17.80;1.00
13610;DHT22;6876;50.788;4.940;2023-07-20T05:55:55;17.80;1.00
13610;DHT22;6876;50.788;4.940;2023-07-20T05:58:42;17.90;1.00
13610;DHT22;6876;50.788;4.940;2023-07-20T06:01:31;18.00;1.00
13610;DHT22;6876;50.788;4.940;2023-07-20T06:04:18;18.00;1.00
13610;DHT22;6876;50.788;4.940;2023-07-20T06:07:05;17.90;1.00
13610;DHT22;6876;50.788;4.940;2023-07-20T06:09:53;17.80;1.00
13610;DHT22;6876;50.788;4.940;2023-07-20T06:12:40;17.70;1.00
13610;DHT22;6876;50.788;4.940;2023-07-20T06:15:30;17.70;1.00
13610;DHT22;6876;50.788;4.940;2023-07-20T06:18:19;17.70;1.00
13610;DHT22;6876;50.788;4.940;2023-07-20T06:21:07;17.70;1.00
13610;DHT22;6876;50.788;4.940;2023-07-20T06:23:54;17.70;1.00
13610;DHT22;6876;50.788;4.940;2023-07-20T06:26:42;17.80;1.00
13610;DHT22;6876;50.788;4.940;2023-07-20T06:29:29;18.10;1.00
13610;DHT22;6876;50.788;4.940;2023-07-20T06:32:16;18.20;1.00
13610;DHT22;6876;50.788;4.940;2023-07-20T06:35:07;18.30;1.00
13610;DHT22;6876;50.788;4.940;2023-07-20T06:37:54;18.40;1.00
13610;DHT22;6876;50.788;4.940;2023-07-20T06:40:41;18.50;1.00
13610;DHT22;6876;50.788;4.940;2023-07-20T06:43:29;18.60;1.00
13610;DHT22;6876;50.788;4.940;2023-07-20T06:46:16;18.70;1.00
13610;DHT22;6876;50.788;4.940;2023-07-20T06:49:06;18.70;1.00
13610;DHT22;6876;50.788;4.940;2023-07-20T06:51:56;18.70;1.00
13610;DHT22;6876;50.788;4.940;2023-07-20T06:54:43;18.70;1.00
13610;DHT22;6876;50.788;4.940;2023-07-20T06:57:30;18.60;1.00
13610;DHT22;6876;50.788;4.940;2023-07-20T07:00:18;18.80;1.00
13610;DHT22;6876;50.788;4.940;2023-07-20T07:03:06;18.80;1.00
13610;DHT22;6876;50.788;4.940;2023-07-20T07:05:55;18.80;99.90
13610;DHT22;6876;50.788;4.940;2023-07-20T07:08:44;18.70;99.90
13610;DHT22;6876;50.788;4.940;2023-07-20T07:11:32;18.80;99.90
13610;DHT22;6876;50.788;4.940;2023-07-20T07:14:20;18.90;99.90
13610;DHT22;6876;50.788;4.940;2023-07-20T07:17:07;18.80;99.90
13610;DHT22;6876;50.788;4.940;2023-07-20T07:19:55;18.80;99.90
13610;DHT22;6876;50.788;4.940;2023-07-20T07:22:42;18.80;61.20
13610;DHT22;6876;50.788;4.940;2023-07-20T07:25:31;18.50;99.90
13610;DHT22;6876;50.788;4.940;2023-07-20T07:28:18;18.60;99.90
13610;DHT22;6876;50.788;4.940;2023-07-20T07:31:05;18.90;99.90
13610;DHT22;6876;50.788;4.940;2023-07-20T07:33:53;18.90;1.00
13610;DHT22;6876;50.788;4.940;2023-07-20T07:36:40;18.80;99.90
13610;DHT22;6876;50.788;4.940;2023-07-20T07:39:27;19.10;1.00
13610;DHT22;6876;50.788;4.940;2023-07-20T07:42:17;19.30;99.90
13610;DHT22;6876;50.788;4.940;2023-07-20T07:45:06;19.40;25.60
13610;DHT22;6876;50.788;4.940;2023-07-20T07:47:53;19.70;1.00
13610;DHT22;6876;50.788;4.940;2023-07-20T07:50:40;20.10;1.00
13610;DHT22;6876;50.788;4.940;2023-07-20T07:53:28;20.20;99.90
13610;DHT22;6876;50.788;4.940;2023-07-20T07:56:15;20.30;1.00
13610;DHT22;6876;50.788;4.940;2023-07-20T07:59:04;20.30;1.00
13610;DHT22;6876;50.788;4.940;2023-07-20T08:01:51;20.60;1.00
13610;DHT22;6876;50.788;4.940;2023-07-20T08:04:39;20.90;1.00
13610;DHT22;6876;50.788;4.940;2023-07-20T08:07:26;20.80;99.90
13610;DHT22;6876;50.788;4.940;2023-07-20T08:10:14;20.90;1.00
13610;DHT22;6876;50.788;4.940;2023-07-20T08:13:01;21.60;99.90
13610;DHT22;6876;50.788;4.940;2023-07-20T08:15:51;23.20;1.00
13610;DHT22;6876;50.788;4.940;2023-07-20T08:18:38;24.70;1.00
13610;DHT22;6876;50.788;4.940;2023-07-20T08:21:25;25.40;1.00
13610;DHT22;6876;50.788;4.940;2023-07-20T08:24:12;24.30;1.00
13610;DHT22;6876;50.788;4.940;2023-07-20T08:27:00;23.70;1.00
13610;DHT22;6876;50.788;4.940;2023-07-20T08:29:47;24.80;1.00
13610;DHT22;6876;50.788;4.940;2023-07-20T08:32:36;24.10;1.00
13610;DHT22;6876;50.788;4.940;2023-07-20T08:35:24;23.50;1.00
13610;DHT22;6876;50.788;4.940;2023-07-20T08:38:11;23.30;1.00
13610;DHT22;6876;50.788;4.940;2023-07-20T08:40:59;24.40;1.00
13610;DHT22;6876;50.788;4.940;2023-07-20T08:43:47;26.00;99.90
13610;DHT22;6876;50.788;4.940;2023-07-20T08:46:35;27.60;99.90
13610;DHT22;6876;50.788;4.940;2023-07-20T08:49:25;28.00;99.90
13610;DHT22;6876;50.788;4.940;2023-07-20T08:52:12;28.60;1.00
13610;DHT22;6876;50.788;4.940;2023-07-20T08:54:59;26.70;1.00
13610;DHT22;6876;50.788;4.940;2023-07-20T08:57:50;25.10;1.00
13610;DHT22;6876;50.788;4.940;2023-07-20T09:00:38;24.20;1.00
13610;DHT22;6876;50.788;4.940;2023-07-20T09:03:26;23.70;1.00
13610;DHT22;6876;50.788;4.940;2023-07-20T09:06:15;23.60;1.00
13610;DHT22;6876;50.788;4.940;2023-07-20T09:09:03;24.00;1.00
13610;DHT22;6876;50.788;4.940;2023-07-20T09:11:50;25.80;1.00
13610;DHT22;6876;50.788;4.940;2023-07-20T09:14:37;27.10;1.00
13610;DHT22;6876;50.788;4.940;2023-07-20T09:17:25;27.80;1.00
13610;DHT22;6876;50.788;4.940;2023-07-20T09:20:15;27.40;99.90
13610;DHT22;6876;50.788;4.940;2023-07-20T09:23:05;26.90;99.90
13610;DHT22;6876;50.788;4.940;2023-07-20T09:25:53;26.30;99.90
13610;DHT22;6876;50.788;4.940;2023-07-20T09:28:47;27.50;99.90
13610;DHT22;6876;50.788;4.940;2023-07-20T09:31:34;27.30;99.90
13610;DHT22;6876;50.788;4.940;2023-07-20T09:34:22;27.20;99.90
13610;DHT22;6876;50.788;4.940;2023-07-20T09:37:09;26.30;99.90
13610;DHT22;6876;50.788;4.940;2023-07-20T09:39:58;25.90;99.90
13610;DHT22;6876;50.788;4.940;2023-07-20T09:42:46;25.40;99.90
13610;DHT22;6876;50.788;4.940;2023-07-20T09:45:34;25.80;99.90
13610;DHT22;6876;50.788;4.940;2023-07-20T09:48:24;25.70;99.90
13610;DHT22;6876;50.788;4.940;2023-07-20T09:51:12;26.60;99.90
13610;DHT22;6876;50.788;4.940;2023-07-20T09:53:59;26.70;99.90
13610;DHT22;6876;50.788;4.940;2023-07-20T09:56:48;25.80;99.90
13610;DHT22;6876;50.788;4.940;2023-07-20T09:59:37;25.80;99.90
13610;DHT22;6876;50.788;4.940;2023-07-20T10:02:27;25.50;99.90
13610;DHT22;6876;50.788;4.940;2023-07-20T10:05:17;25.60;99.90
13610;DHT22;6876;50.788;4.940;2023-07-20T10:08:05;25.90;99.90
13610;DHT22;6876;50.788;4.940;2023-07-20T10:10:58;25.70;99.90
13610;DHT22;6876;50.788;4.940;2023-07-20T10:13:50;25.20;99.90
13610;DHT22;6876;50.788;4.940;2023-07-20T10:16:42;24.40;99.90
13610;DHT22;6876;50.788;4.940;2023-07-20T10:19:38;24.20;99.90
13610;DHT22;6876;50.788;4.940;2023-07-20T10:22:35;24.40;99.90
13610;DHT22;6876;50.788;4.940;2023-07-20T10:25:23;24.60;99.90
13610;DHT22;6876;50.788;4.940;2023-07-20T10:28:11;24.90;99.90
13610;DHT22;6876;50.788;4.940;2023-07-20T10:31:00;26.00;99.90
13610;DHT22;6876;50.788;4.940;2023-07-20T10:33:48;27.10;99.90
13610;DHT22;6876;50.788;4.940;2023-07-20T10:36:44;27.40;99.90
13610;DHT22;6876;50.788;4.940;2023-07-20T10:39:32;27.60;99.90
13610;DHT22;6876;50.788;4.940;2023-07-20T10:42:20;27.90;99.90
13610;DHT22;6876;50.788;4.940;2023-07-20T10:45:08;28.40;99.90
13610;DHT22;6876;50.788;4.940;2023-07-20T10:47:57;28.00;99.90
13610;DHT22;6876;50.788;4.940;2023-07-20T10:50:44;27.70;99.90
13610;DHT22;6876;50.788;4.940;2023-07-20T10:53:32;27.80;99.90
13610;DHT22;6876;50.788;4.940;2023-07-20T10:56:21;27.60;99.90
13610;DHT22;6876;50.788;4.940;2023-07-20T10:59:18;27.30;99.90
13610;DHT22;6876;50.788;4.940;2023-07-20T11:02:07;26.60;99.90
13610;DHT22;6876;50.788;4.940;2023-07-20T11:04:56;26.00;99.90
13610;DHT22;6876;50.788;4.940;2023-07-20T11:07:43;25.60;99.90
13610;DHT22;6876;50.788;4.940;2023-07-20T11:10:32;25.70;99.90
13610;DHT22;6876;50.788;4.940;2023-07-20T11:13:22;25.70;99.90
13610;DHT22;6876;50.788;4.940;2023-07-20T11:16:10;25.50;99.90
13610;DHT22;6876;50.788;4.940;2023-07-20T11:18:57;25.70;99.90
13610;DHT22;6876;50.788;4.940;2023-07-20T11:21:50;25.60;99.90
13610;DHT22;6876;50.788;4.940;2023-07-20T11:24:39;25.80;99.90
13610;DHT22;6876;50.788;4.940;2023-07-20T11:27:26;25.90;99.90
13610;DHT22;6876;50.788;4.940;2023-07-20T11:30:16;26.20;99.90
13610;DHT22;6876;50.788;4.940;2023-07-20T11:33:03;26.10;99.90
13610;DHT22;6876;50.788;4.940;2023-07-20T11:35:51;26.30;99.90
13610;DHT22;6876;50.788;4.940;2023-07-20T11:38:41;26.70;99.90
13610;DHT22;6876;50.788;4.940;2023-07-20T11:41:29;26.60;99.90
13610;DHT22;6876;50.788;4.940;2023-07-20T11:44:17;26.70;99.90
13610;DHT22;6876;50.788;4.940;2023-07-20T11:47:07;26.60;99.90
13610;DHT22;6876;50.788;4.940;2023-07-20T11:49:54;26.50;99.90
13610;DHT22;6876;50.788;4.940;2023-07-20T11:52:42;26.90;99.90
13610;DHT22;6876;50.788;4.940;2023-07-20T11:55:31;26.40;99.90
13610;DHT22;6876;50.788;4.940;2023-07-20T11:58:19;25.90;99.90
13610;DHT22;6876;50.788;4.940;2023-07-20T12:01:07;26.20;99.90
13610;DHT22;6876;50.788;4.940;2023-07-20T12:03:55;27.10;99.90
13610;DHT22;6876;50.788;4.940;2023-07-20T12:06:42;27.20;99.90
13610;DHT22;6876;50.788;4.940;2023-07-20T12:09:32;27.50;99.90
13610;DHT22;6876;50.788;4.940;2023-07-20T12:12:21;27.60;99.90
13610;DHT22;6876;50.788;4.940;2023-07-20T12:15:15;27.80;99.90
13610;DHT22;6876;50.788;4.940;2023-07-20T12:18:02;28.10;99.90
13610;DHT22;6876;50.788;4.940;2023-07-20T12:20:58;27.90;99.90
13610;DHT22;6876;50.788;4.940;2023-07-20T12:23:46;27.80;99.90
13610;DHT22;6876;50.788;4.940;2023-07-20T12:26:34;27.80;99.90
13610;DHT22;6876;50.788;4.940;2023-07-20T12:29:22;27.20;99.90
13610;DHT22;6876;50.788;4.940;2023-07-20T12:32:09;26.80;99.90
13610;DHT22;6876;50.788;4.940;2023-07-20T12:34:56;26.80;99.90
13610;DHT22;6876;50.788;4.940;2023-07-20T12:37:46;27.00;99.90
13610;DHT22;6876;50.788;4.940;2023-07-20T12:40:35;26.60;99.90
13610;DHT22;6876;50.788;4.940;2023-07-20T12:43:23;26.40;99.90
13610;DHT22;6876;50.788;4.940;2023-07-20T12:46:12;26.40;99.90
13610;DHT22;6876;50.788;4.940;2023-07-20T12:49:00;26.30;99.90
13610;DHT22;6876;50.788;4.940;2023-07-20T12:51:47;26.00;99.90
13610;DHT22;6876;50.788;4.940;2023-07-20T12:54:34;26.10;99.90
13610;DHT22;6876;50.788;4.940;2023-07-20T12:57:21;26.10;99.90
13610;DHT22;6876;50.788;4.940;2023-07-20T13:00:10;26.00;99.90
13610;DHT22;6876;50.788;4.940;2023-07-20T13:02:59;26.50;99.90
13610;DHT22;6876;50.788;4.940;2023-07-20T13:05:48;26.70;99.90
13610;DHT22;6876;50.788;4.940;2023-07-20T13:08:36;26.60;99.90
13610;DHT22;6876;50.788;4.940;2023-07-20T13:11:23;26.90;99.90
13610;DHT22;6876;50.788;4.940;2023-07-20T13:14:10;26.50;99.90
13610;DHT22;6876;50.788;4.940;2023-07-20T13:16:58;26.30;99.90
13610;DHT22;6876;50.788;4.940;2023-07-20T13:19:47;26.20;99.90
13610;DHT22;6876;50.788;4.940;2023-07-20T13:22:34;26.40;99.90
13610;DHT22;6876;50.788;4.940;2023-07-20T13:25:21;26.50;99.90
13610;DHT22;6876;50.788;4.940;2023-07-20T13:28:09;26.50;99.90
13610;DHT22;6876;50.788;4.940;2023-07-20T13:30:56;26.20;99.90
13610;DHT22;6876;50.788;4.940;2023-07-20T13:33:43;26.20;99.90
13610;DHT22;6876;50.788;4.940;2023-07-20T13:36:32;26.00;99.90
13610;DHT22;6876;50.788;4.940;2023-07-20T13:39:19;26.10;99.90
13610;DHT22;6876;50.788;4.940;2023-07-20T13:42:10;26.20;99.90
13610;DHT22;6876;50.788;4.940;2023-07-20T13:44:58;26.10;99.90
13610;DHT22;6876;50.788;4.940;2023-07-20T13:47:45;25.80;99.90
13610;DHT22;6876;50.788;4.940;2023-07-20T13:50:33;26.10;99.90
13610;DHT22;6876;50.788;4.940;2023-07-20T13:53:21;26.30;99.90
13610;DHT22;6876;50.788;4.940;2023-07-20T13:56:09;26.40;99.90
13610;DHT22;6876;50.788;4.940;2023-07-20T13:58:56;26.20;99.90
13610;DHT22;6876;50.788;4.940;2023-07-20T14:01:43;26.30;99.90
13610;DHT22;6876;50.788;4.940;2023-07-20T14:04:31;26.50;99.90
13610;DHT22;6876;50.788;4.940;2023-07-20T14:07:18;26.50;99.90
13610;DHT22;6876;50.788;4.940;2023-07-20T14:10:07;26.40;99.90
13610;DHT22;6876;50.788;4.940;2023-07-20T14:12:54;26.30;99.90
13610;DHT22;6876;50.788;4.940;2023-07-20T14:15:41;26.00;99.90
13610;DHT22;6876;50.788;4.940;2023-07-20T14:18:29;25.60;99.90
13610;DHT22;6876;50.788;4.940;2023-07-20T14:21:16;25.80;99.90
13610;DHT22;6876;50.788;4.940;2023-07-20T14:24:04;25.90;99.90
13610;DHT22;6876;50.788;4.940;2023-07-20T14:26:53;26.00;99.90
13610;DHT22;6876;50.788;4.940;2023-07-20T14:29:40;25.90;99.90
13610;DHT22;6876;50.788;4.940;2023-07-20T14:32:27;25.90;99.90
13610;DHT22;6876;50.788;4.940;2023-07-20T14:35:15;25.90;99.90
13610;DHT22;6876;50.788;4.940;2023-07-20T14:38:02;25.80;99.90
13610;DHT22;6876;50.788;4.940;2023-07-20T14:40:49;25.70;99.90
13610;DHT22;6876;50.788;4.940;2023-07-20T14:43:38;25.60;99.90
13610;DHT22;6876;50.788;4.940;2023-07-20T14:46:26;25.70;99.90
13610;DHT22;6876;50.788;4.940;2023-07-20T14:49:13;25.40;99.90
13610;DHT22;6876;50.788;4.940;2023-07-20T14:52:00;25.20;99.90
13610;DHT22;6876;50.788;4.940;2023-07-20T14:54:47;25.10;99.90
13610;DHT22;6876;50.788;4.940;2023-07-20T14:57:35;25.10;99.90
13610;DHT22;6876;50.788;4.940;2023-07-20T15:00:23;24.80;99.90
13610;DHT22;6876;50.788;4.940;2023-07-20T15:03:11;24.90;99.90
13610;DHT22;6876;50.788;4.940;2023-07-20T15:05:58;25.10;99.90
13610;DHT22;6876;50.788;4.940;2023-07-20T15:08:45;25.30;99.90
13610;DHT22;6876;50.788;4.940;2023-07-20T15:11:33;25.40;99.90
13610;DHT22;6876;50.788;4.940;2023-07-20T15:14:20;25.50;99.90
13610;DHT22;6876;50.788;4.940;2023-07-20T15:17:09;25.40;97.80
13610;DHT22;6876;50.788;4.940;2023-07-20T15:19:57;25.50;99.90
13610;DHT22;6876;50.788;4.940;2023-07-20T15:22:44;25.40;99.90
13610;DHT22;6876;50.788;4.940;2023-07-20T15:25:31;25.40;99.90
13610;DHT22;6876;50.788;4.940;2023-07-20T15:28:18;25.60;99.90
13610;DHT22;6876;50.788;4.940;2023-07-20T15:31:05;25.40;99.90
13610;DHT22;6876;50.788;4.940;2023-07-20T15:33:54;25.50;96.10
13610;DHT22;6876;50.788;4.940;2023-07-20T15:36:42;25.40;93.90
13610;DHT22;6876;50.788;4.940;2023-07-20T15:39:29;25.40;93.50
13610;DHT22;6876;50.788;4.940;2023-07-20T15:42:16;25.20;95.10
13610;DHT22;6876;50.788;4.940;2023-07-20T15:45:04;25.40;99.90
13610;DHT22;6876;50.788;4.940;2023-07-20T15:47:52;25.20;94.80
13610;DHT22;6876;50.788;4.940;2023-07-20T15:50:40;25.20;96.70
13610;DHT22;6876;50.788;4.940;2023-07-20T15:53:28;25.10;94.50
13610;DHT22;6876;50.788;4.940;2023-07-20T15:56:15;24.70;92.20
13610;DHT22;6876;50.788;4.940;2023-07-20T15:59:03;24.50;91.60
13610;DHT22;6876;50.788;4.940;2023-07-20T16:01:50;24.60;92.30
13610;DHT22;6876;50.788;4.940;2023-07-20T16:04:37;24.30;93.90
13610;DHT22;6876;50.788;4.940;2023-07-20T16:07:26;24.00;92.00
13610;DHT22;6876;50.788;4.940;2023-07-20T16:10:13;24.10;93.00
13610;DHT22;6876;50.788;4.940;2023-07-20T16:13:00;24.10;93.80
13610;DHT22;6876;50.788;4.940;2023-07-20T16:15:49;24.00;93.80
13610;DHT22;6876;50.788;4.940;2023-07-20T16:18:36;24.10;99.90
13610;DHT22;6876;50.788;4.940;2023-07-20T16:21:23;24.10;93.90
13610;DHT22;6876;50.788;4.940;2023-07-20T16:24:12;24.10;92.30
13610;DHT22;6876;50.788;4.940;2023-07-20T16:26:59;24.00;92.00
13610;DHT22;6876;50.788;4.940;2023-07-20T16:29:46;24.00;92.90
13610;DHT22;6876;50.788;4.940;2023-07-20T16:32:34;23.80;93.30
13610;DHT22;6876;50.788;4.940;2023-07-20T16:35:21;23.70;93.90
13610;DHT22;6876;50.788;4.940;2023-07-20T16:38:08;23.50;99.90
13610;DHT22;6876;50.788;4.940;2023-07-20T16:40:57;23.40;93.50
13610;DHT22;6876;50.788;4.940;2023-07-20T16:43:44;23.40;93.60
13610;DHT22;6876;50.788;4.940;2023-07-20T16:46:32;23.50;99.20
13610;DHT22;6876;50.788;4.940;2023-07-20T16:49:20;23.20;99.40
13610;DHT22;6876;50.788;4.940;2023-07-20T16:52:07;23.10;99.90
13610;DHT22;6876;50.788;4.940;2023-07-20T16:54:55;22.70;99.90
13610;DHT22;6876;50.788;4.940;2023-07-20T16:57:43;22.40;99.90
13610;DHT22;6876;50.788;4.940;2023-07-20T17:00:30;22.20;99.90
13610;DHT22;6876;50.788;4.940;2023-07-20T17:03:18;21.90;99.90
13610;DHT22;6876;50.788;4.940;2023-07-20T17:06:05;20.70;99.90
13610;DHT22;6876;50.788;4.940;2023-07-20T17:08:53;19.50;10.70
13610;DHT22;6876;50.788;4.940;2023-07-20T17:11:41;19.00;1.00
13610;DHT22;6876;50.788;4.940;2023-07-20T17:14:30;18.80;1.00
13610;DHT22;6876;50.788;4.940;2023-07-20T17:17:18;18.60;1.00
13610;DHT22;6876;50.788;4.940;2023-07-20T17:20:07;18.50;1.00
13610;DHT22;6876;50.788;4.940;2023-07-20T17:22:56;18.60;1.00
13610;DHT22;6876;50.788;4.940;2023-07-20T17:25:44;18.70;1.00
13610;DHT22;6876;50.788;4.940;2023-07-20T17:28:32;18.60;1.00
13610;DHT22;6876;50.788;4.940;2023-07-20T17:31:20;18.30;1.00
13610;DHT22;6876;50.788;4.940;2023-07-20T17:34:11;18.20;1.00
13610;DHT22;6876;50.788;4.940;2023-07-20T17:37:00;18.20;18.80
13610;DHT22;6876;50.788;4.940;2023-07-20T17:39:49;18.20;11.40
13610;DHT22;6876;50.788;4.940;2023-07-20T17:42:37;18.20;1.00
13610;DHT22;6876;50.788;4.940;2023-07-20T17:45:24;18.20;1.00
13610;DHT22;6876;50.788;4.940;2023-07-20T17:48:13;18.20;1.00
13610;DHT22;6876;50.788;4.940;2023-07-20T17:51:00;18.30;1.00
13610;DHT22;6876;50.788;4.940;2023-07-20T17:53:47;18.30;1.00
13610;DHT22;6876;50.788;4.940;2023-07-20T17:56:35;18.30;1.00
13610;DHT22;6876;50.788;4.940;2023-07-20T17:59:22;18.40;1.00
13610;DHT22;6876;50.788;4.940;2023-07-20T18:02:09;18.50;1.00
13610;DHT22;6876;50.788;4.940;2023-07-20T18:04:58;18.80;1.00
13610;DHT22;6876;50.788;4.940;2023-07-20T18:07:46;18.70;1.00